Time;durP1;ratioP1;P1;durP2;ratioP2;P2;SDS_P1;SDS_P2;PMS_P1;PMS_P2;Temp;Humidity;BMP_temperature;BMP_pressure;BME280_temperature;BME280_humidity;BME280_pressure;Samples;Min_cycle;Max_cycle;Signal;HPM_P1;HPM_P2
2024/03/16 00:03:48;;;;;;;2.47;1.00;;;;;;;10.08;100.00;97936.03;15286453;19;20094;-58
2024/03/16 00:09:15;;;;;;;2.00;0.93;;;;;;;10.26;100.00;97935.00;15038029;19;5002160;-58
2024/03/16 00:14:40;;;;;;;2.00;1.00;;;;;;;10.38;100.00;97946.28;15281606;19;20033;-54
2024/03/16 00:20:07;;;;;;;2.00;0.70;;;;;;;10.46;100.00;97941.72;15295804;19;20011;-58
2024/03/16 00:25:34;;;;;;;3.00;0.90;;;;;;;10.54;100.00;97940.00;15296200;19;20022;-58
2024/03/16 00:30:58;;;;;;;2.25;0.60;;;;;;;10.59;100.00;97941.16;15292616;19;20085;-58
2024/03/16 00:36:24;;;;;;;1.70;0.80;;;;;;;10.62;100.00;97934.59;15288110;19;20021;-57
2024/03/16 00:41:51;;;;;;;2.15;0.95;;;;;;;10.64;100.00;97937.97;15292876;19;20015;-58
2024/03/16 00:47:23;;;;;;;1.35;0.80;;;;;;;10.65;100.00;97936.94;15287309;19;20025;-58
2024/03/16 00:52:48;;;;;;;2.42;0.77;;;;;;;10.62;100.00;97940.00;15292910;19;20007;-58
2024/03/16 00:58:16;;;;;;;1.73;0.90;;;;;;;10.60;100.00;97939.31;15285511;19;20074;-57
2024/03/16 01:03:40;;;;;;;1.23;0.50;;;;;;;10.60;100.00;97937.44;15284323;19;20019;-58
2024/03/16 01:09:06;;;;;;;0.20;0.20;;;;;;;10.63;100.00;97933.59;15284155;19;20010;-59
2024/03/16 01:14:34;;;;;;;0.35;0.25;;;;;;;10.62;100.00;97927.34;15280208;19;20339;-58
2024/03/16 01:19:59;;;;;;;0.63;0.20;;;;;;;10.61;100.00;97925.66;15288004;19;20013;-58
2024/03/16 01:25:24;;;;;;;0.47;0.20;;;;;;;10.59;100.00;97926.88;15284473;19;20045;-56
2024/03/16 01:30:52;;;;;;;0.50;0.22;;;;;;;10.60;100.00;97925.84;15283665;19;20422;-57
2024/03/16 01:36:17;;;;;;;0.47;0.20;;;;;;;10.62;100.00;97931.91;15283461;19;20021;-54
2024/03/16 01:41:42;;;;;;;0.30;0.20;;;;;;;10.64;100.00;97924.50;15289333;19;20022;-58
2024/03/16 01:47:19;;;;;;;1.30;0.20;;;;;;;10.58;100.00;97930.56;15292519;19;20018;-56
2024/03/16 01:52:45;;;;;;;0.15;0.10;;;;;;;10.56;100.00;97927.19;15281377;19;20058;-57
2024/03/16 01:58:09;;;;;;;0.13;0.10;;;;;;;10.52;100.00;97915.13;15283493;19;20021;-57
2024/03/16 02:03:36;;;;;;;0.60;0.20;;;;;;;10.47;100.00;97918.31;15278767;19;20024;-57
2024/03/16 02:09:02;;;;;;;1.50;0.40;;;;;;;10.49;100.00;97932.44;15297622;19;20546;-57
2024/03/16 02:14:28;;;;;;;1.75;0.40;;;;;;;10.46;100.00;97922.03;15291416;19;20090;-56
2024/03/16 02:19:55;;;;;;;0.57;0.35;;;;;;;10.48;100.00;97923.53;15303461;19;20085;-56
2024/03/16 02:25:23;;;;;;;2.28;0.43;;;;;;;10.47;100.00;97923.69;15296435;19;20014;-58
2024/03/16 02:30:47;;;;;;;0.35;0.35;;;;;;;10.43;100.00;97925.88;15299691;19;20432;-57
2024/03/16 02:36:13;;;;;;;1.75;0.50;;;;;;;10.40;100.00;97933.47;15294735;19;20038;-56
2024/03/16 02:41:40;;;;;;;1.58;0.50;;;;;;;10.35;100.00;97933.13;15302452;19;20015;-58
2024/03/16 02:47:11;;;;;;;0.73;0.40;;;;;;;10.30;100.00;97936.31;15040202;19;5001585;-58
2024/03/16 02:52:37;;;;;;;0.80;0.40;;;;;;;10.26;100.00;97943.06;15299563;19;20078;-57
2024/03/16 02:58:04;;;;;;;0.63;0.40;;;;;;;10.14;100.00;97943.44;15297629;19;20339;-58
2024/03/16 03:03:30;;;;;;;1.35;0.40;;;;;;;9.99;100.00;97947.81;15036246;19;5001426;-57
2024/03/16 03:08:54;;;;;;;0.57;0.40;;;;;;;9.85;100.00;97944.78;15297614;19;20345;-56
2024/03/16 03:14:21;;;;;;;0.43;0.30;;;;;;;9.77;100.00;97941.25;15296708;19;20011;-58
2024/03/16 03:19:46;;;;;;;0.63;0.30;;;;;;;9.64;100.00;97933.69;15294891;19;20027;-56
2024/03/16 03:25:12;;;;;;;0.60;0.30;;;;;;;9.57;100.00;97936.22;15300737;19;20017;-53
2024/03/16 03:30:39;;;;;;;1.05;0.30;;;;;;;9.56;100.00;97946.13;15287619;19;20010;-56
2024/03/16 03:36:04;;;;;;;0.70;0.28;;;;;;;9.51;100.00;97947.66;15296148;19;20441;-57
2024/03/16 03:41:30;;;;;;;0.40;0.30;;;;;;;9.45;100.00;97943.78;15297614;19;20143;-56
2024/03/16 03:47:04;;;;;;;0.30;0.30;;;;;;;9.48;100.00;97938.03;15294979;19;20470;-58
2024/03/16 03:52:30;;;;;;;0.30;0.22;;;;;;;9.53;100.00;97953.66;15294556;19;20022;-57
2024/03/16 03:57:54;;;;;;;0.95;0.40;;;;;;;9.58;100.00;97945.97;15291289;19;20054;-55
2024/03/16 04:03:21;;;;;;;1.00;0.35;;;;;;;9.62;100.00;97943.78;15287719;19;20021;-56
2024/03/16 04:08:46;;;;;;;0.60;0.40;;;;;;;9.62;100.00;97941.94;15291399;19;20039;-58
2024/03/16 04:14:11;;;;;;;0.82;0.30;;;;;;;9.63;100.00;97938.25;15290995;19;20015;-57
2024/03/16 04:19:38;;;;;;;1.05;0.40;;;;;;;9.64;100.00;97939.06;15295059;19;20078;-59
2024/03/16 04:25:03;;;;;;;0.40;0.40;;;;;;;9.68;100.00;97938.56;15287454;19;20022;-59
2024/03/16 04:30:28;;;;;;;0.40;0.30;;;;;;;9.72;100.00;97947.13;15291028;19;20020;-58
2024/03/16 04:35:55;;;;;;;1.33;0.40;;;;;;;9.76;100.00;97956.56;15291775;19;20762;-57
2024/03/16 04:41:21;;;;;;;0.38;0.38;;;;;;;9.78;100.00;97959.94;15294787;19;20018;-56
2024/03/16 04:46:57;;;;;;;0.75;0.40;;;;;;;9.79;100.00;97975.06;15295352;19;20026;-57
2024/03/16 04:52:24;;;;;;;0.63;0.40;;;;;;;9.74;100.00;97957.75;15287554;19;20025;-59
2024/03/16 04:57:50;;;;;;;0.40;0.28;;;;;;;9.67;100.00;97954.88;15292352;19;20275;-55
2024/03/16 05:03:15;;;;;;;0.95;0.40;;;;;;;9.64;100.00;97963.28;15282579;19;20633;-53
2024/03/16 05:08:44;;;;;;;0.45;0.40;;;;;;;9.61;100.00;97960.91;15286678;19;20027;-55
2024/03/16 05:14:09;;;;;;;0.77;0.35;;;;;;;9.59;100.00;97968.31;15279614;19;20051;-56
2024/03/16 05:19:34;;;;;;;0.60;0.45;;;;;;;9.57;100.00;97965.78;15291311;19;20086;-60
2024/03/16 05:25:04;;;;;;;0.73;0.43;;;;;;;9.52;100.00;97971.66;15291999;19;20783;-59
2024/03/16 05:30:37;;;;;;;2.17;0.57;;;;;;;9.47;100.00;97984.75;15286646;19;20025;-58
2024/03/16 05:36:05;;;;;;;0.77;0.50;;;;;;;9.44;100.00;97982.41;15290152;19;20472;-58
2024/03/16 05:41:32;;;;;;;1.30;0.50;;;;;;;9.43;100.00;97998.69;15293594;19;20362;-61
2024/03/16 05:47:03;;;;;;;1.70;0.50;;;;;;;9.39;100.00;97999.03;15298241;19;20029;-59
2024/03/16 05:52:28;;;;;;;0.43;0.40;;;;;;;9.39;100.00;98006.25;15300751;19;20409;-60
2024/03/16 05:57:55;;;;;;;0.95;0.40;;;;;;;9.40;100.00;97999.88;15304856;19;20547;-60
2024/03/16 06:03:20;;;;;;;1.17;0.60;;;;;;;9.44;100.00;98006.63;15301481;19;20082;-59
2024/03/16 06:08:44;;;;;;;1.73;0.60;;;;;;;9.50;100.00;98010.50;15296814;19;20597;-59
2024/03/16 06:14:12;;;;;;;1.38;0.73;;;;;;;9.53;100.00;98015.53;15298904;19;20483;-60
2024/03/16 06:19:36;;;;;;;1.98;0.95;;;;;;;9.59;100.00;98019.41;15041750;19;5001488;-61
2024/03/16 06:25:01;;;;;;;1.15;0.63;;;;;;;9.64;100.00;98025.13;15297102;19;20042;-60
2024/03/16 06:30:30;;;;;;;2.08;1.00;;;;;;;9.69;100.00;98033.56;15300764;19;20352;-60
2024/03/16 06:35:56;;;;;;;1.63;0.90;;;;;;;9.75;100.00;98027.50;15298849;19;20023;-60
2024/03/16 06:41:21;;;;;;;1.92;0.80;;;;;;;9.79;100.00;98036.94;15286899;19;20025;-60
2024/03/16 06:46:51;;;;;;;1.40;0.75;;;;;;;9.87;100.00;98050.41;15297114;19;20029;-61
2024/03/16 06:52:24;;;;;;;2.50;0.80;;;;;;;9.91;100.00;98056.28;15292361;19;20423;-59
2024/03/16 06:57:49;;;;;;;2.83;0.80;;;;;;;9.92;100.00;98065.22;15303313;19;20056;-60
2024/03/16 07:03:16;;;;;;;2.05;0.90;;;;;;;9.91;100.00;98058.16;15296613;19;20022;-60
2024/03/16 07:08:42;;;;;;;1.92;0.90;;;;;;;9.93;100.00;98070.41;15295063;19;20032;-58
2024/03/16 07:14:07;;;;;;;1.80;0.90;;;;;;;9.94;100.00;98076.63;15296007;19;20042;-62
2024/03/16 07:19:36;;;;;;;2.22;1.00;;;;;;;10.01;100.00;98088.44;15293900;19;20033;-59
2024/03/16 07:25:01;;;;;;;3.10;1.10;;;;;;;10.09;100.00;98096.50;15297082;19;20006;-57
2024/03/16 07:30:26;;;;;;;2.55;1.00;;;;;;;10.24;100.00;98101.25;15301290;19;20017;-61
2024/03/16 07:35:58;;;;;;;2.72;1.00;;;;;;;10.41;100.00;98097.56;15297659;19;20449;-58
2024/03/16 07:41:23;;;;;;;1.63;0.90;;;;;;;10.59;100.00;98092.00;15299781;19;20018;-58
2024/03/16 07:46:48;;;;;;;1.95;0.98;;;;;;;10.76;100.00;98098.22;15290820;19;20086;-59
2024/03/16 07:52:16;;;;;;;2.55;1.10;;;;;;;10.83;100.00;98102.94;15290976;19;20086;-56
2024/03/16 07:57:40;;;;;;;1.40;1.00;;;;;;;10.74;100.00;98102.97;15297611;19;20026;-59
2024/03/16 08:03:05;;;;;;;2.15;1.10;;;;;;;10.66;100.00;98116.41;15291156;19;20014;-58
2024/03/16 08:08:33;;;;;;;2.08;1.08;;;;;;;10.61;100.00;98118.78;15290589;19;20028;-55
2024/03/16 08:14:05;;;;;;;2.80;1.07;;;;;;;10.54;100.00;98120.47;15277712;19;20018;-59
2024/03/16 08:19:29;;;;;;;2.40;1.20;;;;;;;10.44;100.00;98137.63;15280746;19;20888;-57
2024/03/16 08:24:56;;;;;;;2.45;1.15;;;;;;;10.41;100.00;98155.97;15274615;19;20025;-59
2024/03/16 08:30:22;;;;;;;1.35;0.90;;;;;;;10.53;100.00;98172.63;15284776;19;20074;-61
2024/03/16 08:35:47;;;;;;;2.15;0.88;;;;;;;10.79;100.00;98178.72;15287427;19;20415;-58
2024/03/16 08:41:14;;;;;;;2.17;0.88;;;;;;;11.08;100.00;98174.66;15294175;19;20038;-57
2024/03/16 08:46:45;;;;;;;2.25;1.00;;;;;;;11.35;100.00;98175.28;15275458;19;20078;-57
2024/03/16 08:52:10;;;;;;;1.13;0.80;;;;;;;11.48;100.00;98161.25;15285011;19;20470;-55
2024/03/16 08:57:37;;;;;;;1.60;0.80;;;;;;;11.52;100.00;98183.31;15284338;19;20311;-52
2024/03/16 09:03:04;;;;;;;1.42;0.75;;;;;;;11.56;100.00;98187.38;15290436;19;20018;-51
2024/03/16 09:08:24;;;;;;;0.95;0.60;;;;;;;11.69;100.00;98184.13;15283571;19;20335;-52
2024/03/16 09:13:51;;;;;;;1.92;0.80;;;;;;;11.84;100.00;98176.97;15284014;19;20021;-55
2024/03/16 09:19:16;;;;;;;1.60;0.60;;;;;;;11.91;100.00;98176.25;15283148;19;20022;-56
2024/03/16 09:24:41;;;;;;;1.33;0.65;;;;;;;11.88;100.00;98169.38;15288299;19;20460;-58
2024/03/16 09:30:11;;;;;;;1.55;0.60;;;;;;;11.83;100.00;98169.88;15287777;19;20090;-57
2024/03/16 09:35:35;;;;;;;0.90;0.50;;;;;;;11.82;100.00;98178.16;15290182;19;20010;-56
2024/03/16 09:41:01;;;;;;;0.47;0.30;;;;;;;11.89;100.00;98173.75;15290575;19;20039;-55
2024/03/16 09:46:34;;;;;;;1.08;0.50;;;;;;;11.89;100.00;98173.75;15278362;19;20025;-56
2024/03/16 09:52:00;;;;;;;0.30;0.20;;;;;;;11.97;100.00;98187.19;15284609;19;20014;-53
2024/03/16 09:57:28;;;;;;;1.17;0.30;;;;;;;12.36;100.00;98163.06;15282491;19;20475;-57
2024/03/16 10:02:54;;;;;;;1.00;0.40;;;;;;;12.62;100.00;98160.84;15289165;19;20014;-56
2024/03/16 10:08:20;;;;;;;1.48;0.40;;;;;;;12.66;100.00;98163.16;15278756;19;20019;-54
2024/03/16 10:13:57;;;;;;;0.88;0.40;;;;;;;12.76;100.00;98164.59;15283447;19;20014;-56
2024/03/16 10:19:24;;;;;;;0.85;0.32;;;;;;;12.90;100.00;98172.94;15279152;19;20011;-54
2024/03/16 10:24:56;;;;;;;1.25;0.40;;;;;;;12.90;100.00;98165.66;15278090;19;20466;-54
2024/03/16 10:30:23;;;;;;;0.77;0.40;;;;;;;12.93;100.00;98159.06;15293192;19;20022;-57
2024/03/16 10:35:49;;;;;;;1.08;0.40;;;;;;;12.98;100.00;98166.63;15290118;19;20030;-55
2024/03/16 10:41:16;;;;;;;0.68;0.40;;;;;;;13.02;100.00;98157.97;15301158;19;20036;-55
2024/03/16 10:46:42;;;;;;;0.40;0.30;;;;;;;13.07;100.00;98162.81;15292081;19;20014;-57
2024/03/16 10:52:13;;;;;;;0.50;0.40;;;;;;;12.98;100.00;98156.63;15298400;19;20022;-56
2024/03/16 10:57:39;;;;;;;0.70;0.40;;;;;;;11.80;100.00;98186.44;15290917;19;20015;-54
2024/03/16 11:03:07;;;;;;;0.70;0.30;;;;;;;10.94;100.00;98196.91;15296771;19;20029;-56
2024/03/16 11:08:45;;;;;;;0.40;0.32;;;;;;;10.93;100.00;98206.88;15288429;19;20015;-57
2024/03/16 11:14:15;;;;;;;0.88;0.43;;;;;;;10.89;100.00;98212.72;15288505;19;20392;-54
2024/03/16 11:19:38;;;;;;;1.15;0.50;;;;;;;11.07;100.00;98215.25;15282500;19;20030;-57
2024/03/16 11:25:06;;;;;;;1.10;0.50;;;;;;;11.30;100.00;98218.09;15296131;19;20011;-56
2024/03/16 11:30:31;;;;;;;1.27;0.50;;;;;;;11.43;100.00;98225.66;15287687;19;20014;-55
2024/03/16 11:36:02;;;;;;;1.08;0.45;;;;;;;11.57;100.00;98219.56;15283512;19;20698;-54
2024/03/16 11:41:28;;;;;;;0.82;0.50;;;;;;;11.88;100.00;98226.06;15286093;19;20041;-55
2024/03/16 11:46:53;;;;;;;0.40;0.40;;;;;;;12.32;100.00;98211.19;15292749;19;20015;-57
2024/03/16 11:52:17;;;;;;;0.40;0.22;;;;;;;12.52;100.00;98200.78;15294568;19;20014;-56
2024/03/16 11:57:43;;;;;;;0.52;0.30;;;;;;;12.90;100.00;98202.69;15293201;19;20034;-55
2024/03/16 12:03:10;;;;;;;0.57;0.30;;;;;;;13.05;100.00;98200.00;15284217;19;20019;-55
2024/03/16 12:08:35;;;;;;;0.22;0.20;;;;;;;13.02;100.00;98167.91;15292282;19;20100;-55
2024/03/16 12:14:16;;;;;;;1.23;0.30;;;;;;;12.83;100.00;98177.38;15286409;19;20364;-55
2024/03/16 12:19:40;;;;;;;0.40;0.20;;;;;;;12.75;100.00;98186.41;15285858;19;20328;-55
2024/03/16 12:25:04;;;;;;;0.90;0.30;;;;;;;12.38;100.00;98251.00;15288363;19;20029;-55
2024/03/16 12:30:36;;;;;;;0.43;0.30;;;;;;;11.26;100.00;98289.56;15291762;19;20040;-57
2024/03/16 12:35:59;;;;;;;0.95;0.40;;;;;;;10.06;100.00;98301.38;15282413;19;20010;-55
2024/03/16 12:41:23;;;;;;;3.70;0.90;;;;;;;9.24;100.00;98350.94;15292324;19;20510;-55
2024/03/16 12:46:50;;;;;;;1.63;0.93;;;;;;;9.06;100.00;98406.56;15283707;19;20371;-57
2024/03/16 12:52:14;;;;;;;2.10;0.80;;;;;;;8.88;100.00;98404.66;15292144;19;20064;-56
2024/03/16 12:57:37;;;;;;;1.17;0.90;;;;;;;8.93;100.00;98418.50;15292007;19;20022;-57
2024/03/16 13:03:06;;;;;;;0.93;0.80;;;;;;;9.09;100.00;98454.63;15294993;19;20024;-56
2024/03/16 13:08:29;;;;;;;1.25;0.90;;;;;;;9.15;100.00;98478.22;15278341;19;20014;-57
2024/03/16 13:13:53;;;;;;;0.93;0.85;;;;;;;9.16;100.00;98487.13;15282515;19;20479;-57
2024/03/16 13:19:19;;;;;;;0.70;0.70;;;;;;;9.20;100.00;98497.44;15282310;19;20014;-53
2024/03/16 13:24:43;;;;;;;0.80;0.80;;;;;;;9.32;100.00;98497.22;15283369;19;20137;-56
2024/03/16 13:30:06;;;;;;;0.90;0.90;;;;;;;9.35;100.00;98502.28;15285705;19;20352;-57
2024/03/16 13:35:32;;;;;;;0.90;0.90;;;;;;;9.27;100.00;98491.44;15280640;19;20021;-57
2024/03/16 13:40:56;;;;;;;0.68;0.60;;;;;;;8.90;100.00;98494.03;15280708;19;20028;-56
2024/03/16 13:46:21;;;;;;;1.02;0.50;;;;;;;8.57;100.00;98507.03;15287819;19;20015;-55
2024/03/16 13:51:47;;;;;;;0.68;0.50;;;;;;;8.32;100.00;98506.66;15287230;19;20018;-54
2024/03/16 13:57:12;;;;;;;0.50;0.50;;;;;;;8.17;100.00;98525.03;15275585;19;20029;-57
2024/03/16 14:02:36;;;;;;;0.60;0.60;;;;;;;8.15;100.00;98527.03;15293698;19;20020;-54
2024/03/16 14:08:03;;;;;;;2.47;0.65;;;;;;;8.22;100.00;98538.03;15291379;19;20018;-55
2024/03/16 14:13:26;;;;;;;0.82;0.50;;;;;;;8.29;100.00;98568.66;15292033;19;20021;-57
2024/03/16 14:18:50;;;;;;;0.40;0.40;;;;;;;8.38;100.00;98563.44;15294060;19;20481;-53
2024/03/16 14:24:16;;;;;;;0.50;0.40;;;;;;;8.62;100.00;98563.84;15302570;19;20018;-53
2024/03/16 14:29:40;;;;;;;0.70;0.40;;;;;;;8.92;100.00;98550.34;15297712;19;20019;-56
2024/03/16 14:35:15;;;;;;;0.50;0.40;;;;;;;9.19;100.00;98556.69;15297044;19;20700;-56
2024/03/16 14:40:43;;;;;;;0.75;0.40;;;;;;;9.47;100.00;98536.00;15302066;19;20014;-56
2024/03/16 14:46:08;;;;;;;0.85;0.40;;;;;;;9.54;100.00;98539.81;15287496;19;20015;-84
2024/03/16 14:51:32;;;;;;;0.40;0.30;;;;;;;9.80;100.00;98533.69;15299756;19;20014;-85
2024/03/16 14:56:59;;;;;;;0.50;0.30;;;;;;;9.74;100.00;98539.66;15302986;19;20019;-86
2024/03/16 15:02:24;;;;;;;0.10;0.10;;;;;;;9.43;100.00;98558.84;15305592;19;20019;-85
2024/03/16 15:07:49;;;;;;;0.88;0.30;;;;;;;9.46;100.00;98550.50;15305687;19;20007;-84
2024/03/16 15:13:25;;;;;;;0.68;0.30;;;;;;;9.76;100.00;98516.16;15302509;19;20024;-84
2024/03/16 15:18:50;;;;;;;0.85;0.30;;;;;;;9.90;100.00;98519.31;15317734;19;20053;-83
2024/03/16 15:24:20;;;;;;;0.52;0.30;;;;;;;10.01;100.00;98552.19;15306713;19;20030;-83
2024/03/16 15:29:48;;;;;;;0.30;0.30;;;;;;;9.99;100.00;98547.97;15300190;19;20062;-84
2024/03/16 15:35:13;;;;;;;0.60;0.40;;;;;;;9.60;100.00;98548.25;15296731;19;20304;-85
2024/03/16 15:40:38;;;;;;;1.00;0.50;;;;;;;9.51;100.00;98558.09;15305103;19;20010;-83
2024/03/16 15:46:04;;;;;;;0.90;0.57;;;;;;;9.68;100.00;98577.94;15333065;19;20011;-84
2024/03/16 15:51:29;;;;;;;0.90;0.50;;;;;;;9.59;100.00;98578.84;15330830;19;20010;-88
2024/03/16 15:56:52;;;;;;;1.50;0.50;;;;;;;9.20;100.00;98588.81;15294147;19;20015;-85
2024/03/16 16:02:19;;;;;;;1.38;0.70;;;;;;;8.98;100.00;98591.88;15298944;19;20078;-82
2024/03/16 16:07:42;;;;;;;1.42;0.60;;;;;;;8.84;100.00;98620.91;15306948;19;20014;-83
2024/03/16 16:13:11;;;;;;;2.60;0.90;;;;;;;8.63;100.00;98618.41;15303118;19;20014;-83
2024/03/16 16:18:38;;;;;;;2.58;0.68;;;;;;;8.54;100.00;98638.91;15305834;19;20366;-84
2024/03/16 16:24:03;;;;;;;2.70;0.88;;;;;;;8.51;100.00;98660.69;15037697;19;5001749;-83
2024/03/16 16:29:26;;;;;;;3.92;1.10;;;;;;;8.41;100.00;98654.44;15304943;19;20031;-83
2024/03/16 16:34:53;;;;;;;1.63;0.70;;;;;;;8.24;100.00;98675.63;15299019;19;20022;-83
2024/03/16 16:40:17;;;;;;;3.28;1.00;;;;;;;8.09;100.00;98690.44;15304745;19;20346;-82
2024/03/16 16:45:41;;;;;;;4.18;0.98;;;;;;;8.02;100.00;98696.38;15302549;19;20014;-80
2024/03/16 16:51:07;;;;;;;1.70;0.73;;;;;;;7.95;100.00;98703.25;15304792;19;20006;-83
2024/03/16 16:56:42;;;;;;;4.15;0.90;;;;;;;7.86;100.00;98712.13;15326202;19;20030;-82
2024/03/16 17:02:08;;;;;;;2.90;0.80;;;;;;;7.79;100.00;98727.91;15329586;19;20013;-82
2024/03/16 17:07:39;;;;;;;3.42;0.93;;;;;;;7.72;100.00;98732.97;15294209;19;20113;-82
2024/03/16 17:13:02;;;;;;;4.05;0.90;;;;;;;7.67;100.00;98743.28;15292478;19;20014;-81
2024/03/16 17:18:26;;;;;;;2.45;0.82;;;;;;;7.60;100.00;98742.09;15296272;19;20047;-82
2024/03/16 17:23:52;;;;;;;4.03;1.00;;;;;;;7.54;100.00;98762.25;15291876;19;20018;-80
2024/03/16 17:29:16;;;;;;;4.20;0.95;;;;;;;7.47;100.00;98765.59;15292373;19;20410;-81
2024/03/16 17:34:39;;;;;;;3.45;0.95;;;;;;;7.39;100.00;98788.56;15286536;19;20484;-80
2024/03/16 17:40:07;;;;;;;1.85;0.90;;;;;;;7.36;100.00;98799.53;15298598;19;20006;-81
2024/03/16 17:45:31;;;;;;;1.48;0.80;;;;;;;7.31;100.00;98812.50;15345058;19;20026;-81
2024/03/16 17:51:01;;;;;;;3.85;1.10;;;;;;;7.23;100.00;98809.63;15349679;19;20047;-82
2024/03/16 17:56:29;;;;;;;4.82;1.10;;;;;;;7.15;100.00;98828.16;15306596;19;20018;-82
2024/03/16 18:01:52;;;;;;;3.28;1.20;;;;;;;7.08;100.00;98819.78;15293104;19;20010;-81
2024/03/16 18:07:24;;;;;;;4.07;1.10;;;;;;;7.00;100.00;98835.69;15302394;19;20503;-82
2024/03/16 18:12:50;;;;;;;2.40;0.90;;;;;;;6.92;100.00;98838.97;15299671;19;20018;-82
2024/03/16 18:18:15;;;;;;;4.28;1.15;;;;;;;6.83;100.00;98845.13;15296711;19;20478;-83
2024/03/16 18:23:41;;;;;;;3.17;1.10;;;;;;;6.76;100.00;98850.13;15293410;19;20019;-83
2024/03/16 18:29:05;;;;;;;3.60;1.10;;;;;;;6.71;100.00;98855.88;15292519;19;20474;-84
2024/03/16 18:34:29;;;;;;;2.22;1.00;;;;;;;6.64;100.00;98868.06;15288445;19;20011;-82
2024/03/16 18:39:56;;;;;;;4.13;1.10;;;;;;;6.59;100.00;98886.31;15297501;19;20015;-82
2024/03/16 18:45:19;;;;;;;3.42;1.15;;;;;;;6.51;100.00;98886.94;15295456;19;20025;-83
2024/03/16 18:50:49;;;;;;;2.20;1.05;;;;;;;6.40;100.00;98892.28;15308118;19;20078;-82
2024/03/16 18:56:18;;;;;;;3.45;1.10;;;;;;;6.24;100.00;98909.56;15308735;19;20089;-81
2024/03/16 19:01:44;;;;;;;3.67;1.13;;;;;;;6.16;100.00;98915.53;15319346;19;20019;-82
2024/03/16 19:07:08;;;;;;;4.20;1.20;;;;;;;6.08;100.00;98920.63;15310059;19;20003;-81
2024/03/16 19:12:38;;;;;;;2.50;0.90;;;;;;;5.97;100.00;98913.44;15319694;19;20038;-81
2024/03/16 19:18:03;;;;;;;5.05;1.40;;;;;;;5.76;100.00;98915.09;15312169;19;20382;-81
2024/03/16 19:23:26;;;;;;;2.78;1.33;;;;;;;5.61;100.00;98912.63;15321863;19;20370;-81
2024/03/16 19:28:53;;;;;;;4.18;1.75;;;;;;;5.43;100.00;98914.88;15317489;19;20018;-83
2024/03/16 19:34:18;;;;;;;3.75;1.10;;;;;;;5.31;100.00;98922.00;15304257;19;20320;-83
2024/03/16 19:39:42;;;;;;;2.05;1.00;;;;;;;5.22;100.00;98923.56;15310724;19;20074;-83
2024/03/16 19:45:08;;;;;;;2.13;0.93;;;;;;;5.19;100.00;98929.13;15306958;19;20034;-84
2024/03/16 19:50:38;;;;;;;4.00;1.10;;;;;;;5.17;100.00;98930.22;15307429;19;20039;-84
2024/03/16 19:56:03;;;;;;;1.60;0.93;;;;;;;5.12;100.00;98938.53;15321556;19;20052;-84
2024/03/16 20:01:32;;;;;;;3.40;0.90;;;;;;;5.05;100.00;98945.31;15354660;19;20022;-84
2024/03/16 20:06:58;;;;;;;4.40;1.00;;;;;;;4.94;100.00;98944.28;15333361;19;20030;-84
2024/03/16 20:12:21;;;;;;;4.60;1.17;;;;;;;4.84;100.00;98950.41;15315103;19;20050;-84
2024/03/16 20:17:48;;;;;;;2.15;1.10;;;;;;;4.68;100.00;98959.53;15310920;19;20069;-84
2024/03/16 20:23:12;;;;;;;3.22;1.10;;;;;;;4.58;100.00;98962.00;15312896;19;20011;-84
2024/03/16 20:28:36;;;;;;;3.03;1.10;;;;;;;4.52;100.00;98977.59;15313434;19;20422;-84
2024/03/16 20:34:03;;;;;;;3.45;1.08;;;;;;;4.45;100.00;98986.06;15307755;19;20480;-85
2024/03/16 20:39:27;;;;;;;3.22;1.23;;;;;;;4.43;100.00;98989.75;15308166;19;20473;-82
2024/03/16 20:44:51;;;;;;;3.35;1.13;;;;;;;4.38;100.00;98986.59;15299529;19;20023;-81
2024/03/16 20:50:26;;;;;;;2.92;0.85;;;;;;;4.34;100.00;98988.63;15304098;19;20090;-84
2024/03/16 20:55:51;;;;;;;2.58;1.00;;;;;;;4.30;100.00;99006.63;15302699;19;20015;-83
2024/03/16 21:01:22;;;;;;;3.35;1.10;;;;;;;4.28;100.00;99005.91;15303305;19;20048;-82
2024/03/16 21:06:55;;;;;;;2.40;1.10;;;;;;;4.26;100.00;99020.28;15306962;19;20006;-83
2024/03/16 21:12:19;;;;;;;2.95;1.08;;;;;;;4.16;100.00;99014.75;14787231;19;10001374;-85
2024/03/16 21:17:42;;;;;;;1.92;0.98;;;;;;;4.05;100.00;99015.50;15298090;19;20010;-83
2024/03/16 21:23:10;;;;;;;2.60;1.10;;;;;;;3.93;100.00;99025.19;15299961;19;20007;-82
2024/03/16 21:28:34;;;;;;;4.20;1.10;;;;;;;3.89;100.00;99026.34;15299262;19;20505;-84
2024/03/16 21:33:59;;;;;;;3.80;1.08;;;;;;;3.88;100.00;99027.31;15300380;19;20017;-84
2024/03/16 21:39:26;;;;;;;2.30;0.93;;;;;;;3.79;100.00;99027.94;15294754;19;20082;-84
2024/03/16 21:44:52;;;;;;;2.63;1.20;;;;;;;3.73;100.00;99036.31;15290624;19;20057;-85
2024/03/16 21:50:22;;;;;;;3.15;1.20;;;;;;;3.78;100.00;99036.88;15293942;19;20006;-75
2024/03/16 21:55:49;;;;;;;4.00;1.10;;;;;;;4.00;100.00;99042.47;15283348;19;20018;-72
2024/03/16 22:01:28;;;;;;;2.47;1.17;;;;;;;4.17;100.00;99040.47;15279743;19;20024;-73
2024/03/16 22:06:53;;;;;;;2.45;1.02;;;;;;;4.25;100.00;99040.78;15278899;19;20731;-72
2024/03/16 22:12:20;;;;;;;3.40;1.08;;;;;;;4.24;100.00;99049.75;15278988;19;20018;-72
2024/03/16 22:17:44;;;;;;;2.38;1.02;;;;;;;4.20;100.00;99047.41;15269955;19;20040;-72
2024/03/16 22:23:07;;;;;;;3.55;1.05;;;;;;;4.19;100.00;99054.53;15287287;19;20092;-71
2024/03/16 22:28:34;;;;;;;3.17;1.10;;;;;;;4.20;100.00;99048.25;15304809;19;20019;-72
2024/03/16 22:33:57;;;;;;;3.85;1.10;;;;;;;4.18;100.00;99059.97;15299798;19;20018;-72
2024/03/16 22:39:21;;;;;;;2.45;1.00;;;;;;;4.13;100.00;99061.13;15302864;19;20011;-72
2024/03/16 22:44:47;;;;;;;1.58;1.10;;;;;;;4.14;100.00;99064.69;15301788;19;20027;-72
2024/03/16 22:50:18;;;;;;;1.90;1.00;;;;;;;4.36;100.00;99065.88;15315406;19;20082;-72
2024/03/16 22:55:42;;;;;;;2.65;1.20;;;;;;;4.61;100.00;99073.88;15306475;19;20074;-72
2024/03/16 23:01:12;;;;;;;2.78;1.00;;;;;;;4.69;100.00;99070.69;15305247;19;20024;-72
2024/03/16 23:06:36;;;;;;;2.75;1.15;;;;;;;4.59;100.00;99082.94;15296755;19;20050;-72
2024/03/16 23:11:59;;;;;;;4.25;1.20;;;;;;;4.38;100.00;99086.13;15300030;19;20014;-72
2024/03/16 23:17:26;;;;;;;2.38;1.00;;;;;;;4.13;100.00;99087.81;15289766;19;20095;-72
2024/03/16 23:22:49;;;;;;;2.38;1.02;;;;;;;3.92;100.00;99089.25;15295159;19;20010;-71
2024/03/16 23:28:13;;;;;;;2.80;1.35;;;;;;;3.73;100.00;99081.63;15294455;19;20413;-71
2024/03/16 23:33:40;;;;;;;2.50;1.13;;;;;;;3.60;100.00;99085.09;15288316;19;20070;-70
2024/03/16 23:39:08;;;;;;;2.03;1.30;;;;;;;3.46;100.00;99086.00;15289621;19;20660;-71
2024/03/16 23:44:31;;;;;;;3.33;1.20;;;;;;;3.37;100.00;99097.25;15289982;19;20021;-70
2024/03/16 23:49:58;;;;;;;2.42;1.00;;;;;;;3.24;100.00;99087.41;15295140;19;20021;-70
2024/03/16 23:55:21;;;;;;;4.65;1.10;;;;;;;3.17;100.00;99093.22;15286341;19;20014;-71
